Time;durP1;ratioP1;P1;durP2;ratioP2;P2;SDS_P1;SDS_P2;PMS_P1;PMS_P2;Temp;Humidity;BMP_temperature;BMP_pressure;BME280_temperature;BME280_humidity;BME280_pressure;Samples;Min_cycle;Max_cycle;Signal;HPM_P1;HPM_P2
2022/04/13 00:00:19;;;;;;;1.70;1.60;;;7.60;99.90;;;;;;4838650;29;20221;-59
2022/04/13 00:02:55;;;;;;;2.53;2.30;;;7.50;99.90;;;;;;4843905;29;20357;-59
2022/04/13 00:05:26;;;;;;;2.65;2.45;;;7.60;99.90;;;;;;4837003;29;20218;-60
2022/04/13 00:07:57;;;;;;;2.35;2.25;;;7.50;99.90;;;;;;4837407;29;20247;-59
2022/04/13 00:10:28;;;;;;;2.38;2.17;;;7.50;99.90;;;;;;4840722;29;20214;-60
2022/04/13 00:12:59;;;;;;;1.70;1.60;;;7.30;99.90;;;;;;4837259;29;20253;-60
2022/04/13 00:15:31;;;;;;;2.20;2.00;;;7.50;99.90;;;;;;4846057;29;20202;-60
2022/04/13 00:18:10;;;;;;;3.65;1.90;;;7.80;99.90;;;;;;4839047;29;20288;-60
2022/04/13 00:20:40;;;;;;;2.03;1.92;;;7.90;99.90;;;;;;4846482;29;20217;-61
2022/04/13 00:23:18;;;;;;;2.70;1.55;;;8.00;99.90;;;;;;4846278;29;20301;-60
2022/04/13 00:25:49;;;;;;;2.30;1.75;;;8.20;99.90;;;;;;4849297;29;20205;-60
2022/04/13 00:28:25;;;;;;;2.95;2.05;;;8.10;99.90;;;;;;4837264;29;20220;-60
2022/04/13 00:30:55;;;;;;;2.70;2.40;;;8.10;99.90;;;;;;4848430;29;20213;-60
2022/04/13 00:33:36;;;;;;;1.52;1.42;;;8.30;99.90;;;;;;4843440;29;20729;-59
2022/04/13 00:36:07;;;;;;;2.45;2.00;;;8.40;99.90;;;;;;4845787;29;20221;-60
2022/04/13 00:38:38;;;;;;;4.25;2.42;;;8.60;99.90;;;;;;4841478;29;20210;-60
2022/04/13 00:41:13;;;;;;;2.85;2.22;;;8.70;99.90;;;;;;4847734;29;20210;-60
2022/04/13 00:43:49;;;;;;;2.83;2.63;;;8.60;99.90;;;;;;4843784;29;20551;-60
2022/04/13 00:46:22;;;;;;;2.50;2.30;;;8.60;99.90;;;;;;4850526;29;20509;-60
2022/04/13 00:48:54;;;;;;;3.42;1.92;;;8.40;99.90;;;;;;4854359;29;20234;-60
2022/04/13 00:51:25;;;;;;;3.50;2.10;;;8.40;99.90;;;;;;4849107;29;20218;-59
2022/04/13 00:53:58;;;;;;;1.90;1.80;;;8.10;99.90;;;;;;4850317;29;20237;-60
2022/04/13 00:56:29;;;;;;;2.13;2.03;;;7.90;99.90;;;;;;4846392;29;20301;-60
2022/04/13 00:59:09;;;;;;;3.63;2.20;;;7.90;99.90;;;;;;4839524;29;20212;-61
2022/04/13 01:01:42;;;;;;;2.67;2.45;;;7.60;99.90;;;;;;4849023;29;20201;-64
2022/04/13 01:04:17;;;;;;;3.10;2.30;;;7.50;99.90;;;;;;4849741;29;20241;-64
2022/04/13 01:06:48;;;;;;;3.10;2.80;;;7.40;99.90;;;;;;4853684;29;20201;-60
2022/04/13 01:09:20;;;;;;;2.17;1.98;;;7.40;99.90;;;;;;4838860;29;20243;-62
2022/04/13 01:11:51;;;;;;;2.47;2.28;;;7.20;99.90;;;;;;4850904;29;20220;-62
2022/04/13 01:14:29;;;;;;;2.15;1.75;;;7.00;99.90;;;;;;4849510;29;20237;-64
2022/04/13 01:17:01;;;;;;;1.95;1.85;;;6.90;99.90;;;;;;4842783;29;20320;-63
2022/04/13 01:19:45;;;;;;;1.55;1.45;;;6.70;99.90;;;;;;4852747;29;20244;-60
2022/04/13 01:22:21;;;;;;;1.77;1.50;;;6.60;99.90;;;;;;4852227;29;20335;-58
2022/04/13 01:24:52;;;;;;;1.95;1.75;;;6.40;99.90;;;;;;4846372;29;20213;-60
2022/04/13 01:27:23;;;;;;;1.75;1.65;;;6.30;99.90;;;;;;4846575;29;20310;-61
2022/04/13 01:29:54;;;;;;;3.67;2.40;;;6.30;99.90;;;;;;4847092;29;20213;-60
2022/04/13 01:32:25;;;;;;;2.03;1.92;;;6.20;99.90;;;;;;4851339;29;20749;-61
2022/04/13 01:34:56;;;;;;;2.70;1.83;;;6.30;99.90;;;;;;4843345;29;20543;-61
2022/04/13 01:37:29;;;;;;;1.35;1.25;;;6.30;99.90;;;;;;4845563;29;20211;-60
2022/04/13 01:40:00;;;;;;;1.95;1.75;;;6.30;99.90;;;;;;4847540;29;20224;-60
2022/04/13 01:42:30;;;;;;;1.45;1.35;;;6.20;99.90;;;;;;4834435;29;20209;-54
2022/04/13 01:45:02;;;;;;;1.45;1.35;;;6.10;99.90;;;;;;4838683;29;20206;-55
2022/04/13 01:47:33;;;;;;;1.65;1.55;;;6.00;99.90;;;;;;4839402;29;20217;-54
2022/04/13 01:50:04;;;;;;;1.80;1.70;;;5.90;99.90;;;;;;4843853;29;20214;-52
2022/04/13 01:52:36;;;;;;;3.08;1.65;;;5.80;99.90;;;;;;4839943;29;20267;-55
2022/04/13 01:55:08;;;;;;;2.13;2.03;;;5.70;99.90;;;;;;4851830;29;20233;-55
2022/04/13 01:57:39;;;;;;;2.72;2.30;;;5.70;99.90;;;;;;4845079;29;20224;-59
2022/04/13 02:00:13;;;;;;;2.28;2.08;;;5.70;99.90;;;;;;4837847;29;20206;-58
2022/04/13 02:02:45;;;;;;;2.45;2.25;;;5.70;99.90;;;;;;4838547;29;20220;-56
2022/04/13 02:05:17;;;;;;;2.78;2.00;;;5.60;99.90;;;;;;4850427;29;20205;-54
2022/04/13 02:07:49;;;;;;;2.53;2.05;;;5.50;99.90;;;;;;4843520;29;20265;-55
2022/04/13 02:10:20;;;;;;;1.65;1.55;;;5.30;99.90;;;;;;4847239;29;20210;-55
2022/04/13 02:12:51;;;;;;;1.77;1.60;;;5.20;99.90;;;;;;4847469;29;20216;-52
2022/04/13 02:15:23;;;;;;;2.00;1.77;;;5.10;99.90;;;;;;4837832;29;20279;-57
2022/04/13 02:17:53;;;;;;;1.90;1.80;;;5.10;99.90;;;;;;4847945;29;20209;-54
2022/04/13 02:20:24;;;;;;;2.45;2.10;;;5.10;99.90;;;;;;4841149;29;20198;-56
2022/04/13 02:22:57;;;;;;;1.88;1.77;;;5.00;99.90;;;;;;4849379;29;20273;-56
2022/04/13 02:25:28;;;;;;;2.20;1.80;;;5.00;99.90;;;;;;4841200;29;20808;-57
2022/04/13 02:27:59;;;;;;;1.75;1.52;;;5.00;99.90;;;;;;4843281;29;20233;-52
2022/04/13 02:30:29;;;;;;;3.08;2.10;;;5.00;99.90;;;;;;4839352;29;20221;-54
2022/04/13 02:33:01;;;;;;;2.72;2.20;;;5.00;99.90;;;;;;4843513;29;20265;-58
2022/04/13 02:35:32;;;;;;;4.30;2.95;;;5.10;99.90;;;;;;4837179;29;20233;-58
2022/04/13 02:38:05;;;;;;;32.70;6.00;;;5.10;99.90;;;;;;4849383;29;20217;-57
2022/04/13 02:40:38;;;;;;;3.03;2.83;;;5.10;99.90;;;;;;4842933;29;20229;-56
2022/04/13 02:43:10;;;;;;;3.20;1.88;;;5.10;99.90;;;;;;4848068;29;20220;-58
2022/04/13 02:45:44;;;;;;;3.10;2.60;;;5.10;99.90;;;;;;4843366;29;20223;-57
2022/04/13 02:48:16;;;;;;;2.70;2.50;;;5.00;99.90;;;;;;4836959;29;20210;-56
2022/04/13 02:50:48;;;;;;;2.88;2.65;;;5.00;99.90;;;;;;4837766;29;20221;-57
2022/04/13 02:53:22;;;;;;;5.75;2.72;;;5.10;99.90;;;;;;4835548;29;20198;-55
2022/04/13 02:55:52;;;;;;;5.88;5.40;;;5.10;99.90;;;;;;4844113;29;20229;-57
2022/04/13 02:58:23;;;;;;;2.90;2.70;;;5.00;99.90;;;;;;4838754;29;20590;-58
2022/04/13 03:00:54;;;;;;;3.33;3.08;;;5.00;99.90;;;;;;4843628;29;20622;-59
2022/04/13 03:03:27;;;;;;;2.72;2.53;;;5.00;99.90;;;;;;4840744;29;20209;-55
2022/04/13 03:05:58;;;;;;;3.30;3.00;;;5.00;99.90;;;;;;4848806;29;20329;-58
2022/04/13 03:08:31;;;;;;;3.50;3.20;;;5.00;99.90;;;;;;4849377;29;20277;-57
2022/04/13 03:11:02;;;;;;;3.92;3.50;;;4.90;99.90;;;;;;4850237;29;20221;-56
2022/04/13 03:13:33;;;;;;;4.97;3.63;;;4.80;99.90;;;;;;4842092;29;20218;-56
2022/04/13 03:16:04;;;;;;;6.43;4.50;;;4.80;99.90;;;;;;4850240;29;20359;-57
2022/04/13 03:18:35;;;;;;;4.53;3.70;;;4.90;99.90;;;;;;4847855;29;20655;-56
2022/04/13 03:21:06;;;;;;;637.38;84.97;;;4.90;99.90;;;;;;4850986;29;20308;-56
2022/04/13 03:23:38;;;;;;;4.07;3.75;;;5.00;99.90;;;;;;4850605;29;20205;-54
2022/04/13 03:26:09;;;;;;;3.45;3.15;;;4.90;99.90;;;;;;4851305;29;20224;-57
2022/04/13 03:28:40;;;;;;;4.10;3.78;;;5.00;99.90;;;;;;4849705;29;20213;-58
2022/04/13 03:31:11;;;;;;;3.95;3.55;;;5.00;99.90;;;;;;4845009;29;20217;-57
2022/04/13 03:33:41;;;;;;;3.42;3.13;;;5.00;99.90;;;;;;4843398;29;20296;-58
2022/04/13 03:36:13;;;;;;;2.88;2.40;;;5.00;99.90;;;;;;4851166;29;20237;-57
2022/04/13 03:38:45;;;;;;;2.55;2.35;;;5.00;99.90;;;;;;4846833;29;20673;-55
2022/04/13 03:41:16;;;;;;;2.50;2.17;;;4.90;99.90;;;;;;4839111;29;20214;-53
2022/04/13 03:43:47;;;;;;;2.22;2.03;;;4.90;99.90;;;;;;4848819;29;20213;-55
2022/04/13 03:46:18;;;;;;;190.05;40.85;;;4.80;99.90;;;;;;4848068;29;20209;-56
2022/04/13 03:48:49;;;;;;;1.98;1.88;;;4.80;99.90;;;;;;4845704;29;20206;-53
2022/04/13 03:51:19;;;;;;;2.40;2.20;;;4.90;99.90;;;;;;4846344;29;20212;-53
2022/04/13 03:53:52;;;;;;;3.33;3.03;;;4.90;99.90;;;;;;4849780;29;20213;-52
2022/04/13 03:56:22;;;;;;;2.25;2.05;;;5.00;99.90;;;;;;4848375;29;20243;-52
2022/04/13 03:58:53;;;;;;;2.67;1.65;;;4.90;99.90;;;;;;4846482;29;20308;-53
2022/04/13 04:01:24;;;;;;;2.10;1.42;;;4.80;99.90;;;;;;4846836;29;20230;-56
2022/04/13 04:03:56;;;;;;;2.08;1.98;;;4.80;99.90;;;;;;4841928;29;20221;-57
2022/04/13 04:06:26;;;;;;;3.08;1.80;;;4.80;99.90;;;;;;4838956;29;20209;-56
2022/04/13 04:08:59;;;;;;;1.80;1.70;;;4.70;99.90;;;;;;4843121;29;20244;-55
2022/04/13 04:11:29;;;;;;;2.75;1.75;;;4.70;99.90;;;;;;4846978;29;20228;-53
2022/04/13 04:14:01;;;;;;;2.33;2.13;;;4.70;99.90;;;;;;4839892;29;20223;-52
2022/04/13 04:16:32;;;;;;;3.17;2.70;;;4.70;99.90;;;;;;4851061;29;20379;-54
2022/04/13 04:19:03;;;;;;;2.47;2.28;;;4.70;99.90;;;;;;4841094;29;20236;-55
2022/04/13 04:21:33;;;;;;;2.70;2.33;;;4.70;99.90;;;;;;4855027;29;20205;-54
2022/04/13 04:24:07;;;;;;;3.13;2.83;;;4.80;99.90;;;;;;4854372;29;20638;-55
2022/04/13 04:26:38;;;;;;;3.20;2.90;;;4.90;99.90;;;;;;4838275;29;20210;-52
2022/04/13 04:29:09;;;;;;;3.00;2.80;;;4.90;99.90;;;;;;4851773;29;20229;-54
2022/04/13 04:31:53;;;;;;;3.60;3.33;;;4.90;99.90;;;;;;4854310;29;20231;-54
2022/04/13 04:34:25;;;;;;;3.03;2.83;;;4.90;99.90;;;;;;4841478;29;20205;-54
2022/04/13 04:36:56;;;;;;;4.45;3.40;;;4.90;99.90;;;;;;4836915;29;20233;-49
2022/04/13 04:39:28;;;;;;;4.25;3.78;;;5.00;99.90;;;;;;4844929;29;20210;-52
2022/04/13 04:41:59;;;;;;;5.35;3.22;;;4.90;99.90;;;;;;4851474;29;20226;-56
2022/04/13 04:44:30;;;;;;;6.40;3.50;;;4.90;99.90;;;;;;4844917;29;20213;-52
2022/04/13 04:47:01;;;;;;;3.45;3.15;;;4.90;99.90;;;;;;4849048;29;20205;-56
2022/04/13 04:49:32;;;;;;;4.50;3.60;;;4.90;99.90;;;;;;4847440;29;20198;-55
2022/04/13 04:52:03;;;;;;;4.07;3.50;;;4.90;99.90;;;;;;4852545;29;20236;-53
2022/04/13 04:54:35;;;;;;;4.50;3.55;;;4.90;99.90;;;;;;4838734;29;20392;-53
2022/04/13 04:57:11;;;;;;;5.90;4.18;;;4.90;99.90;;;;;;4845560;29;20258;-56
2022/04/13 04:59:42;;;;;;;6.80;4.93;;;4.90;99.90;;;;;;4853225;29;20209;-55
2022/04/13 05:02:13;;;;;;;4.78;4.35;;;4.80;99.90;;;;;;4853072;29;20551;-52
2022/04/13 05:04:44;;;;;;;5.28;4.15;;;4.80;99.90;;;;;;4835592;29;20202;-53
2022/04/13 05:07:15;;;;;;;5.13;4.72;;;4.90;99.90;;;;;;4836707;29;20217;-54
2022/04/13 05:09:47;;;;;;;6.30;5.70;;;4.80;99.90;;;;;;4847738;29;20209;-54
2022/04/13 05:12:18;;;;;;;5.25;4.05;;;4.80;99.90;;;;;;4852668;29;20221;-55
2022/04/13 05:14:49;;;;;;;5.55;5.00;;;4.70;99.90;;;;;;4852839;29;20220;-55
2022/04/13 05:17:20;;;;;;;4.85;4.45;;;4.70;99.90;;;;;;4853195;29;20244;-50
2022/04/13 05:19:50;;;;;;;4.90;4.00;;;4.70;99.90;;;;;;4842085;29;20214;-55
2022/04/13 05:22:21;;;;;;;4.30;3.90;;;4.70;99.90;;;;;;4850107;29;20529;-50
2022/04/13 05:24:54;;;;;;;4.22;3.83;;;4.70;99.90;;;;;;4846505;29;20209;-52
2022/04/13 05:27:25;;;;;;;4.20;3.83;;;4.70;99.90;;;;;;4845451;29;20205;-56
2022/04/13 05:29:56;;;;;;;3.95;3.65;;;4.70;99.90;;;;;;4846183;29;20305;-53
2022/04/13 05:32:27;;;;;;;5.30;4.00;;;4.70;99.90;;;;;;4853397;29;20232;-53
2022/04/13 05:35:01;;;;;;;3.38;3.17;;;4.70;99.90;;;;;;4853705;29;20214;-52
2022/04/13 05:37:32;;;;;;;4.07;3.75;;;4.70;99.90;;;;;;4853067;29;20228;-56
2022/04/13 05:40:05;;;;;;;4.05;3.65;;;4.70;99.90;;;;;;4841078;29;20218;-54
2022/04/13 05:42:36;;;;;;;4.00;3.65;;;4.70;99.90;;;;;;4841639;29;20218;-54
2022/04/13 05:45:11;;;;;;;3.67;3.38;;;4.70;99.90;;;;;;4839035;29;20206;-56
2022/04/13 05:47:42;;;;;;;4.43;3.60;;;4.70;99.90;;;;;;4843012;29;20223;-52
2022/04/13 05:50:13;;;;;;;3.45;3.15;;;4.70;99.90;;;;;;4842872;29;20201;-55
2022/04/13 05:52:45;;;;;;;3.88;3.40;;;4.70;99.90;;;;;;4841911;29;20209;-56
2022/04/13 05:55:17;;;;;;;4.35;3.58;;;4.70;99.90;;;;;;4845087;29;20218;-52
2022/04/13 05:57:48;;;;;;;7.45;4.88;;;4.80;99.90;;;;;;4846485;29;20548;-55
2022/04/13 06:00:20;;;;;;;3.70;3.40;;;4.70;99.90;;;;;;4843588;29;20220;-53
2022/04/13 06:02:50;;;;;;;3.38;2.53;;;4.70;99.90;;;;;;4844871;29;20204;-54
2022/04/13 06:05:24;;;;;;;2.40;2.25;;;4.70;99.90;;;;;;4839177;29;20226;-53
2022/04/13 06:07:55;;;;;;;2.35;2.00;;;4.60;99.90;;;;;;4836846;29;20237;-54
2022/04/13 06:10:27;;;;;;;2.75;2.10;;;4.60;99.90;;;;;;4851491;29;20210;-54
2022/04/13 06:12:58;;;;;;;2.95;1.90;;;4.50;99.90;;;;;;4838825;29;20257;-55
2022/04/13 06:15:31;;;;;;;2.10;1.95;;;4.40;99.90;;;;;;4851644;29;20213;-50
2022/04/13 06:18:02;;;;;;;1.90;1.80;;;4.40;99.90;;;;;;4846496;29;20240;-48
2022/04/13 06:20:33;;;;;;;2.75;2.10;;;4.40;99.90;;;;;;4841363;29;20205;-55
2022/04/13 06:23:03;;;;;;;2.38;2.17;;;4.50;99.90;;;;;;4838950;29;20225;-55
2022/04/13 06:25:36;;;;;;;2.83;2.20;;;4.50;99.90;;;;;;4836812;29;20224;-52
2022/04/13 06:28:07;;;;;;;3.58;1.90;;;4.50;99.90;;;;;;4847080;29;20276;-54
2022/04/13 06:30:38;;;;;;;2.28;2.08;;;4.40;99.90;;;;;;4848435;29;20209;-55
2022/04/13 06:33:09;;;;;;;4.22;2.47;;;4.40;99.90;;;;;;4838246;29;20236;-55
2022/04/13 06:35:39;;;;;;;2.72;2.53;;;4.40;99.90;;;;;;4848677;29;20305;-53
2022/04/13 06:38:10;;;;;;;2.60;2.40;;;4.40;99.90;;;;;;4845942;29;20693;-53
2022/04/13 06:40:43;;;;;;;4.22;2.38;;;4.40;99.90;;;;;;4849647;29;20599;-51
2022/04/13 06:43:13;;;;;;;3.08;2.78;;;4.40;99.90;;;;;;4841692;29;20220;-56
2022/04/13 06:45:44;;;;;;;2.63;2.42;;;4.50;99.90;;;;;;4849857;29;20232;-53
2022/04/13 06:48:17;;;;;;;2.40;2.20;;;4.50;99.90;;;;;;4850464;29;20224;-53
2022/04/13 06:50:48;;;;;;;2.58;2.35;;;4.50;99.90;;;;;;4838825;29;20201;-54
2022/04/13 06:53:19;;;;;;;2.80;2.50;;;4.40;99.90;;;;;;4841225;29;20215;-55
2022/04/13 06:55:52;;;;;;;2.70;2.50;;;4.40;99.90;;;;;;4851583;29;20205;-53
2022/04/13 06:58:22;;;;;;;3.50;2.47;;;4.40;99.90;;;;;;4835841;29;20237;-55
2022/04/13 07:00:57;;;;;;;3.20;2.72;;;4.40;99.90;;;;;;4842284;29;20209;-52
2022/04/13 07:03:28;;;;;;;3.05;2.75;;;4.40;99.90;;;;;;4841924;29;20198;-55
2022/04/13 07:06:02;;;;;;;2.53;2.33;;;4.40;99.90;;;;;;4850811;29;20194;-53
2022/04/13 07:08:33;;;;;;;3.08;2.78;;;4.40;99.90;;;;;;4843927;29;20248;-53
2022/04/13 07:11:05;;;;;;;2.85;2.55;;;4.50;99.90;;;;;;4842886;29;20217;-54
2022/04/13 07:13:36;;;;;;;3.28;2.88;;;4.40;99.90;;;;;;4844877;29;20220;-51
2022/04/13 07:16:07;;;;;;;2.47;2.28;;;4.40;99.90;;;;;;4843527;29;20221;-53
2022/04/13 07:18:41;;;;;;;6.80;2.72;;;4.30;99.90;;;;;;4851226;29;20237;-51
2022/04/13 07:21:11;;;;;;;2.97;2.78;;;4.30;99.90;;;;;;4850047;29;20217;-53
2022/04/13 07:23:42;;;;;;;4.25;2.30;;;4.40;99.90;;;;;;4850941;29;20217;-53
2022/04/13 07:26:17;;;;;;;2.20;2.10;;;4.40;99.90;;;;;;4842173;29;20218;-52
2022/04/13 07:28:48;;;;;;;2.35;2.17;;;4.40;99.90;;;;;;4837080;29;20213;-53
2022/04/13 07:31:19;;;;;;;2.78;2.58;;;4.30;99.90;;;;;;4845503;29;20206;-54
2022/04/13 07:33:50;;;;;;;3.95;3.05;;;4.30;99.90;;;;;;4847175;29;20198;-51
2022/04/13 07:36:21;;;;;;;2.92;2.60;;;4.30;99.90;;;;;;4846976;29;20205;-53
2022/04/13 07:38:51;;;;;;;2.95;2.45;;;4.20;99.90;;;;;;4850426;29;20233;-52
2022/04/13 07:41:24;;;;;;;2.33;2.13;;;4.30;99.90;;;;;;4846078;29;20221;-51
2022/04/13 07:43:55;;;;;;;2.85;2.45;;;4.30;99.90;;;;;;4844973;29;20585;-53
2022/04/13 07:46:27;;;;;;;2.53;2.25;;;4.30;99.90;;;;;;4850090;29;20201;-49
2022/04/13 07:48:58;;;;;;;2.92;2.00;;;4.40;99.90;;;;;;4848316;29;20293;-53
2022/04/13 07:51:29;;;;;;;2.67;1.85;;;4.30;99.90;;;;;;4847233;29;20217;-54
2022/04/13 07:54:01;;;;;;;2.75;2.55;;;4.30;99.90;;;;;;4846880;29;20324;-52
2022/04/13 07:56:47;;;;;;;3.20;2.78;;;4.40;99.90;;;;;;4845736;29;20240;-55
2022/04/13 07:59:18;;;;;;;3.42;2.55;;;4.30;99.90;;;;;;4847716;29;20217;-51
2022/04/13 08:01:49;;;;;;;3.15;2.33;;;4.30;99.90;;;;;;4850306;29;20209;-54
2022/04/13 08:04:20;;;;;;;3.58;2.20;;;4.30;99.90;;;;;;4845549;29;20269;-53
2022/04/13 08:06:57;;;;;;;3.50;2.60;;;4.30;99.90;;;;;;4845576;29;20197;-53
2022/04/13 08:09:28;;;;;;;3.92;2.88;;;4.30;99.90;;;;;;4846731;29;20292;-54
2022/04/13 08:12:00;;;;;;;3.35;2.60;;;4.50;99.90;;;;;;4847608;29;20661;-51
2022/04/13 08:14:31;;;;;;;2.58;2.38;;;4.50;99.90;;;;;;4846438;29;20209;-50
2022/04/13 08:17:03;;;;;;;5.60;2.70;;;4.50;99.90;;;;;;4850313;29;20216;-52
2022/04/13 08:19:34;;;;;;;3.20;1.90;;;4.50;99.90;;;;;;4844585;29;20667;-50
2022/04/13 08:22:07;;;;;;;4.97;2.20;;;4.50;99.90;;;;;;4842075;29;20213;-52
2022/04/13 08:24:38;;;;;;;1.92;1.63;;;4.50;99.90;;;;;;4848993;29;20225;-52
2022/04/13 08:27:11;;;;;;;1.80;1.70;;;4.40;99.90;;;;;;4846911;29;20218;-50
2022/04/13 08:29:42;;;;;;;2.00;1.77;;;4.40;99.90;;;;;;4844858;29;20297;-49
2022/04/13 08:32:13;;;;;;;1.90;1.73;;;4.40;99.90;;;;;;4833220;29;20214;-52
2022/04/13 08:34:44;;;;;;;1.73;1.60;;;4.40;99.90;;;;;;4844435;29;20210;-51
2022/04/13 08:37:15;;;;;;;2.20;1.50;;;4.30;99.90;;;;;;4850159;29;20213;-50
2022/04/13 08:39:46;;;;;;;2.22;1.73;;;4.40;99.90;;;;;;4839894;29;20316;-53
2022/04/13 08:42:28;;;;;;;2.33;2.13;;;4.30;99.90;;;;;;4850084;29;20213;-51
2022/04/13 08:45:08;;;;;;;2.15;1.60;;;4.30;99.90;;;;;;4837704;29;20261;-56
2022/04/13 08:47:44;;;;;;;1.80;1.70;;;4.20;99.90;;;;;;4850073;29;20217;-52
2022/04/13 08:50:19;;;;;;;4.35;2.00;;;4.30;99.90;;;;;;4850073;29;20510;-54
2022/04/13 08:52:55;;;;;;;2.08;1.88;;;4.30;99.90;;;;;;4850050;29;20209;-55
2022/04/13 08:55:28;;;;;;;1.50;1.40;;;4.30;99.90;;;;;;4834721;29;20601;-53
2022/04/13 08:58:09;;;;;;;2.95;2.05;;;4.40;99.90;;;;;;4841108;29;20688;-55
2022/04/13 09:00:50;;;;;;;1.90;1.67;;;4.40;99.90;;;;;;4851590;29;20220;-55
2022/04/13 09:03:32;;;;;;;1.73;1.60;;;4.40;99.90;;;;;;4851685;29;20234;-52
2022/04/13 09:06:03;;;;;;;5.88;2.25;;;4.40;99.90;;;;;;4848130;29;20310;-55
2022/04/13 09:08:42;;;;;;;1.77;1.67;;;4.30;99.90;;;;;;4838764;29;20242;-52
2022/04/13 09:11:15;;;;;;;2.00;1.80;;;4.30;99.90;;;;;;4849791;29;20209;-55
2022/04/13 09:13:50;;;;;;;2.88;2.67;;;4.30;99.90;;;;;;4852284;29;20213;-52
2022/04/13 09:16:23;;;;;;;1.70;1.60;;;4.40;99.90;;;;;;4848598;29;20717;-54
2022/04/13 09:18:55;;;;;;;2.45;1.38;;;4.30;99.90;;;;;;4841877;29;20305;-53
2022/04/13 09:21:28;;;;;;;1.50;1.40;;;4.30;99.90;;;;;;4837802;29;20202;-53
2022/04/13 09:24:01;;;;;;;1.50;1.40;;;4.40;99.90;;;;;;4851685;29;20228;-52
2022/04/13 09:26:32;;;;;;;3.78;2.95;;;4.40;99.90;;;;;;4852925;29;20197;-55
2022/04/13 09:29:04;;;;;;;1.50;1.40;;;4.40;99.90;;;;;;4848390;29;20231;-55
2022/04/13 09:31:41;;;;;;;1.75;1.40;;;4.40;99.90;;;;;;4849489;29;20205;-54
2022/04/13 09:34:12;;;;;;;2.10;1.70;;;4.40;99.90;;;;;;4851146;29;20312;-53
2022/04/13 09:36:48;;;;;;;1.17;1.00;;;4.40;99.90;;;;;;4853389;29;20315;-50
2022/04/13 09:39:21;;;;;;;1.42;1.33;;;4.40;99.90;;;;;;4835100;29;20245;-53
2022/04/13 09:41:53;;;;;;;0.75;0.75;;;4.30;99.90;;;;;;4843766;29;20266;-52
2022/04/13 09:44:25;;;;;;;1.67;0.80;;;4.20;99.90;;;;;;4841381;29;20217;-52
2022/04/13 09:47:07;;;;;;;1.73;0.90;;;4.10;99.90;;;;;;4838728;29;20241;-52
2022/04/13 09:49:42;;;;;;;1.42;1.33;;;4.10;99.90;;;;;;4834730;29;20313;-52
2022/04/13 09:52:15;;;;;;;1.73;1.63;;;4.10;99.90;;;;;;4843811;29;20320;-55
2022/04/13 09:54:48;;;;;;;1.80;1.20;;;4.10;99.90;;;;;;4847732;29;20213;-52
2022/04/13 09:57:25;;;;;;;1.98;1.00;;;4.10;99.90;;;;;;4843305;29;20305;-53
2022/04/13 09:59:59;;;;;;;1.20;1.10;;;4.00;99.90;;;;;;4852571;29;20231;-55
2022/04/13 10:02:47;;;;;;;1.50;1.40;;;4.00;99.90;;;;;;4852408;29;20232;-54
2022/04/13 10:05:23;;;;;;;1.70;1.48;;;4.00;99.90;;;;;;4852211;29;20220;-53
2022/04/13 10:08:03;;;;;;;0.95;0.90;;;4.10;99.90;;;;;;4841318;29;20258;-49
2022/04/13 10:10:34;;;;;;;1.30;1.20;;;4.10;99.90;;;;;;4838645;29;20718;-53
2022/04/13 10:13:05;;;;;;;1.30;1.20;;;4.10;99.90;;;;;;4833607;29;20217;-53
2022/04/13 10:15:38;;;;;;;1.20;1.10;;;4.10;99.90;;;;;;4847630;29;20205;-50
2022/04/13 10:18:09;;;;;;;1.17;1.17;;;4.00;99.90;;;;;;4852188;29;20199;-51
2022/04/13 10:20:46;;;;;;;1.58;1.23;;;4.00;99.90;;;;;;4842134;29;20212;-53
2022/04/13 10:23:18;;;;;;;1.58;1.48;;;4.00;99.90;;;;;;4847411;29;20212;-51
2022/04/13 10:25:48;;;;;;;1.35;1.25;;;4.00;99.90;;;;;;4848136;29;20218;-51
2022/04/13 10:28:25;;;;;;;2.00;1.90;;;4.10;99.90;;;;;;4850904;29;20213;-53
2022/04/13 10:31:10;;;;;;;1.83;1.25;;;4.10;99.90;;;;;;4838127;29;20210;-49
2022/04/13 10:33:48;;;;;;;1.77;1.67;;;4.10;99.90;;;;;;4842057;29;20357;-53
2022/04/13 10:36:19;;;;;;;1.75;1.35;;;4.10;99.90;;;;;;4844000;29;20208;-55
2022/04/13 10:38:50;;;;;;;2.75;1.70;;;4.10;99.90;;;;;;4833954;29;20238;-51
2022/04/13 10:41:21;;;;;;;2.75;1.63;;;4.20;99.90;;;;;;4847542;29;20201;-52
2022/04/13 10:43:52;;;;;;;1.88;1.77;;;4.10;99.90;;;;;;4850023;29;20234;-53
2022/04/13 10:46:25;;;;;;;1.85;1.60;;;4.10;99.90;;;;;;4839550;29;20221;-52
2022/04/13 10:49:07;;;;;;;2.22;1.92;;;4.10;99.90;;;;;;4843230;29;20247;-52
2022/04/13 10:51:40;;;;;;;2.03;1.80;;;4.20;99.90;;;;;;4840981;29;20202;-54
2022/04/13 10:54:14;;;;;;;2.13;1.40;;;4.20;99.90;;;;;;4838033;29;20205;-51
2022/04/13 10:56:50;;;;;;;2.00;1.58;;;4.20;99.90;;;;;;4838532;29;20228;-55
2022/04/13 10:59:26;;;;;;;1.70;1.60;;;4.30;99.90;;;;;;4849200;29;20257;-52
2022/04/13 11:02:02;;;;;;;1.80;1.70;;;4.30;99.90;;;;;;4843734;29;20213;-55
2022/04/13 11:04:34;;;;;;;1.80;1.70;;;4.30;99.90;;;;;;4847100;29;20253;-52
2022/04/13 11:07:06;;;;;;;1.77;1.42;;;4.30;99.90;;;;;;4849123;29;20203;-52
2022/04/13 11:09:41;;;;;;;2.00;1.80;;;4.30;99.90;;;;;;4849991;29;20197;-54
2022/04/13 11:12:15;;;;;;;1.85;1.73;;;4.20;99.90;;;;;;4850041;29;20202;-49
2022/04/13 11:14:51;;;;;;;1.23;1.23;;;4.10;99.90;;;;;;4844929;29;20228;-52
2022/04/13 11:17:28;;;;;;;2.15;1.50;;;4.00;99.90;;;;;;4851031;29;20215;-49
2022/04/13 11:20:20;;;;;;;1.23;1.13;;;4.00;99.90;;;;;;4842465;29;20245;-52
2022/04/13 11:23:13;;;;;;;1.08;1.05;;;4.00;99.90;;;;;;4837813;29;20209;-55
2022/04/13 11:25:50;;;;;;;1.33;1.23;;;4.10;99.90;;;;;;4845213;29;20224;-50
2022/04/13 11:28:28;;;;;;;1.60;1.50;;;3.90;99.90;;;;;;4846435;29;20218;-50
2022/04/13 11:31:04;;;;;;;1.40;1.30;;;3.90;99.90;;;;;;4844261;29;20551;-49
2022/04/13 11:33:57;;;;;;;1.33;1.20;;;3.90;99.90;;;;;;4840083;29;20265;-53
2022/04/13 11:36:31;;;;;;;1.23;1.15;;;3.90;99.90;;;;;;4848032;29;20213;-52
2022/04/13 11:39:37;;;;;;;1.40;1.13;;;3.90;99.90;;;;;;4839535;29;20233;-53
2022/04/13 11:42:15;;;;;;;1.63;1.52;;;3.90;99.90;;;;;;4843254;29;20596;-51
2022/04/13 11:44:50;;;;;;;1.65;1.55;;;3.90;99.90;;;;;;4850933;29;20220;-53
2022/04/13 11:47:22;;;;;;;2.33;1.65;;;3.90;99.90;;;;;;4850379;29;20219;-54
2022/04/13 11:49:58;;;;;;;3.13;2.00;;;4.00;99.90;;;;;;4850635;29;20205;-50
2022/04/13 11:52:43;;;;;;;1.65;1.55;;;4.00;99.90;;;;;;4850756;29;20208;-52
2022/04/13 11:55:18;;;;;;;1.25;1.25;;;4.10;99.90;;;;;;4839704;29;20202;-51
2022/04/13 11:58:21;;;;;;;1.60;1.50;;;4.00;99.90;;;;;;4832467;29;20217;-52
2022/04/13 12:01:00;;;;;;;1.50;1.40;;;4.00;99.90;;;;;;4835494;29;20244;-52
2022/04/13 12:03:32;;;;;;;1.55;1.35;;;4.00;99.90;;;;;;4836683;29;20227;-51
2022/04/13 12:06:10;;;;;;;2.10;1.90;;;3.90;99.90;;;;;;4850718;29;20238;-54
2022/04/13 12:08:44;;;;;;;1.95;1.75;;;4.00;99.90;;;;;;4849241;29;20574;-53
2022/04/13 12:11:17;;;;;;;2.10;1.88;;;4.10;99.90;;;;;;4842777;29;20803;-51
2022/04/13 12:13:50;;;;;;;2.55;1.83;;;4.10;99.90;;;;;;4849660;29;20213;-49
2022/04/13 12:16:23;;;;;;;3.72;2.50;;;4.00;99.90;;;;;;4848396;29;20236;-50
2022/04/13 12:18:56;;;;;;;2.85;2.58;;;4.00;99.90;;;;;;4849226;29;20277;-54
2022/04/13 12:21:31;;;;;;;2.38;2.10;;;4.10;99.90;;;;;;4841850;29;20253;-50
2022/04/13 12:24:04;;;;;;;2.40;2.20;;;4.10;99.90;;;;;;4850758;29;20247;-53
2022/04/13 12:26:37;;;;;;;3.00;2.15;;;4.10;99.90;;;;;;4849644;29;20205;-52
2022/04/13 12:29:19;;;;;;;2.53;2.33;;;4.10;99.90;;;;;;4837348;29;20202;-48
2022/04/13 12:31:51;;;;;;;2.88;2.50;;;4.10;99.90;;;;;;4850123;29;20193;-50
2022/04/13 12:34:23;;;;;;;2.58;2.38;;;4.10;99.90;;;;;;4845224;29;20220;-50
2022/04/13 12:36:59;;;;;;;3.25;2.80;;;4.10;99.90;;;;;;4836995;29;20210;-51
2022/04/13 12:39:32;;;;;;;2.47;2.30;;;4.10;99.90;;;;;;4849083;29;20216;-52
2022/04/13 12:42:04;;;;;;;2.53;2.30;;;4.10;99.90;;;;;;4853660;29;20204;-49
2022/04/13 12:44:35;;;;;;;4.47;2.85;;;4.10;99.90;;;;;;4846188;29;20202;-53
2022/04/13 12:47:07;;;;;;;2.50;2.30;;;4.10;99.90;;;;;;4848348;29;20197;-52
2022/04/13 12:49:37;;;;;;;2.15;2.05;;;4.10;99.90;;;;;;4853427;29;20529;-50
2022/04/13 12:52:11;;;;;;;2.20;2.00;;;4.00;99.90;;;;;;4854019;29;20209;-53
2022/04/13 12:54:43;;;;;;;2.47;2.30;;;4.00;99.90;;;;;;4854274;29;20216;-52
2022/04/13 12:57:15;;;;;;;2.00;1.90;;;4.10;99.90;;;;;;4852269;29;20217;-54
2022/04/13 12:59:46;;;;;;;2.95;2.75;;;4.10;99.90;;;;;;4854138;29;20631;-54
2022/04/13 13:02:21;;;;;;;3.42;2.83;;;4.00;99.90;;;;;;4853540;29;20538;-54
2022/04/13 13:04:53;;;;;;;2.60;2.40;;;4.10;99.90;;;;;;4854063;29;20261;-53
2022/04/13 13:07:33;;;;;;;2.60;2.40;;;4.00;99.90;;;;;;4837944;29;20210;-55
2022/04/13 13:10:03;;;;;;;3.30;3.00;;;4.00;99.90;;;;;;4843328;29;20210;-54
2022/04/13 13:12:34;;;;;;;3.28;2.97;;;4.10;99.90;;;;;;4834610;29;20285;-54
2022/04/13 13:15:05;;;;;;;3.10;2.72;;;4.10;99.90;;;;;;4847893;29;20194;-51
2022/04/13 13:17:42;;;;;;;3.00;2.70;;;4.10;99.90;;;;;;4852404;29;20205;-53
2022/04/13 13:20:15;;;;;;;4.25;3.55;;;4.10;99.90;;;;;;4852672;29;20235;-51
2022/04/13 13:22:50;;;;;;;3.50;3.20;;;4.10;99.90;;;;;;4852869;29;20210;-53
2022/04/13 13:25:21;;;;;;;3.70;3.40;;;4.10;99.90;;;;;;4850437;29;20674;-52
2022/04/13 13:27:55;;;;;;;4.30;3.90;;;4.10;99.90;;;;;;4850877;29;20209;-54